createdAt,value
2022-10-26T00:00:53.136Z,15.61
2022-10-26T00:03:19.736Z,15.57
2022-10-26T00:05:46.360Z,15.50
2022-10-26T00:08:12.949Z,15.49
2022-10-26T00:10:39.561Z,15.59
2022-10-26T00:13:06.205Z,15.53
2022-10-26T00:15:32.821Z,15.37
2022-10-26T00:17:59.466Z,15.20
2022-10-26T00:20:26.123Z,15.33
2022-10-26T00:22:52.745Z,15.07
2022-10-26T00:25:19.329Z,15.17
2022-10-26T00:27:46.106Z,15.15
2022-10-26T00:30:12.886Z,15.16
2022-10-26T00:35:17.110Z,15.21
2022-10-26T00:37:51.045Z,15.22
2022-10-26T00:40:17.917Z,15.22
2022-10-26T00:42:44.595Z,14.96
2022-10-26T00:45:11.247Z,14.85
2022-10-26T00:47:37.906Z,15.03
2022-10-26T00:50:04.524Z,14.94
2022-10-26T00:52:31.143Z,14.97
2022-10-26T00:54:57.742Z,14.69
2022-10-26T00:57:24.915Z,14.70
2022-10-26T00:59:51.560Z,14.83
2022-10-26T01:02:18.170Z,14.79
2022-10-26T01:04:44.772Z,14.84
2022-10-26T01:07:11.372Z,14.89
2022-10-26T01:09:38.015Z,14.92
2022-10-26T01:12:04.678Z,15.04
2022-10-26T01:14:31.332Z,14.90
2022-10-26T01:16:58.000Z,15.04
2022-10-26T01:19:26.535Z,14.84
2022-10-26T01:21:53.194Z,14.82
2022-10-26T01:24:19.815Z,14.86
2022-10-26T01:26:46.591Z,14.80
2022-10-26T01:29:13.271Z,14.92
2022-10-26T01:31:39.861Z,14.73
2022-10-26T01:34:06.482Z,14.71
2022-10-26T01:39:04.592Z,14.80
2022-10-26T01:41:31.217Z,14.70
2022-10-26T01:43:57.814Z,14.79
2022-10-26T01:46:24.455Z,14.83
2022-10-26T01:48:51.084Z,14.90
2022-10-26T01:51:17.703Z,14.75
2022-10-26T01:53:44.334Z,14.71
2022-10-26T01:56:10.945Z,14.41
2022-10-26T01:58:37.594Z,14.36
2022-10-26T02:01:04.242Z,14.60
2022-10-26T02:03:30.969Z,14.51
2022-10-26T02:05:57.605Z,14.45
2022-10-26T02:08:24.263Z,14.58
2022-10-26T02:10:50.855Z,14.65
2022-10-26T02:13:17.491Z,14.66
2022-10-26T02:15:44.090Z,14.63
2022-10-26T02:18:10.719Z,14.71
2022-10-26T02:20:37.326Z,14.84
2022-10-26T02:23:03.912Z,14.62
2022-10-26T02:25:30.544Z,14.70
2022-10-26T02:27:57.130Z,14.77
2022-10-26T02:30:23.750Z,14.69
2022-10-26T02:32:50.377Z,14.50
2022-10-26T02:35:17.008Z,14.34
2022-10-26T02:37:43.621Z,14.27
2022-10-26T02:40:10.243Z,14.24
2022-10-26T02:42:36.860Z,14.16
2022-10-26T02:45:03.455Z,14.37
2022-10-26T02:47:30.048Z,14.46
2022-10-26T02:49:56.662Z,14.60
2022-10-26T02:52:23.285Z,14.44
2022-10-26T02:54:49.876Z,14.49
2022-10-26T02:57:16.489Z,14.46
2022-10-26T02:59:43.124Z,14.23
2022-10-26T03:02:09.723Z,14.03
2022-10-26T03:04:36.347Z,14.08
2022-10-26T03:07:02.953Z,14.17
2022-10-26T03:09:29.574Z,13.79
2022-10-26T03:11:56.193Z,13.80
2022-10-26T03:14:22.770Z,13.87
2022-10-26T03:16:49.368Z,13.64
2022-10-26T03:19:15.989Z,13.91
2022-10-26T03:21:42.602Z,13.96
2022-10-26T03:24:09.188Z,14.08
2022-10-26T03:26:35.810Z,14.05
2022-10-26T03:29:02.398Z,13.95
2022-10-26T03:31:29.021Z,14.02
2022-10-26T03:33:55.653Z,14.06
2022-10-26T03:36:22.266Z,13.97
2022-10-26T03:38:48.852Z,13.82
2022-10-26T03:41:15.491Z,14.08
2022-10-26T03:43:42.113Z,14.24
2022-10-26T03:46:09.410Z,14.25
2022-10-26T03:48:36.057Z,14.07
2022-10-26T03:51:02.682Z,13.93
2022-10-26T03:53:29.283Z,13.85
2022-10-26T03:55:55.895Z,13.97
2022-10-26T03:58:22.595Z,13.81
2022-10-26T04:00:49.315Z,14.08
2022-10-26T04:03:15.991Z,14.05
2022-10-26T04:05:42.617Z,13.99
2022-10-26T04:08:09.231Z,14.06
2022-10-26T04:10:35.827Z,14.14
2022-10-26T04:13:02.448Z,13.84
2022-10-26T04:15:29.241Z,14.18
2022-10-26T04:17:55.968Z,14.29
2022-10-26T04:20:22.591Z,14.41
2022-10-26T04:22:49.213Z,14.44
2022-10-26T04:25:15.822Z,14.37
2022-10-26T04:27:42.436Z,14.40
2022-10-26T04:30:09.036Z,14.33
2022-10-26T04:32:35.686Z,14.29
2022-10-26T04:35:02.303Z,14.34
2022-10-26T04:37:28.899Z,14.43
2022-10-26T04:39:55.554Z,14.39
2022-10-26T04:42:22.199Z,14.14
2022-10-26T04:44:48.805Z,14.33
2022-10-26T04:47:15.417Z,14.37
2022-10-26T04:49:42.014Z,14.43
2022-10-26T04:52:08.632Z,14.42
2022-10-26T04:54:35.223Z,14.42
2022-10-26T04:57:01.843Z,14.40
2022-10-26T04:59:28.462Z,14.43
2022-10-26T05:01:55.136Z,14.46
2022-10-26T05:04:21.881Z,14.63
2022-10-26T05:06:48.469Z,14.48
2022-10-26T05:09:15.124Z,14.49
2022-10-26T05:11:41.763Z,14.42
2022-10-26T05:14:08.354Z,14.65
2022-10-26T05:16:34.999Z,14.17
2022-10-26T05:19:01.620Z,14.16
2022-10-26T05:21:28.259Z,13.94
2022-10-26T05:23:54.874Z,13.68
2022-10-26T05:26:21.478Z,13.74
2022-10-26T05:28:48.085Z,13.90
2022-10-26T05:31:14.674Z,14.04
2022-10-26T05:33:41.327Z,13.92
2022-10-26T05:36:07.980Z,13.84
2022-10-26T05:38:34.665Z,13.80
2022-10-26T05:41:01.326Z,13.90
2022-10-26T05:43:27.968Z,13.80
2022-10-26T05:45:54.568Z,13.87
2022-10-26T05:48:21.184Z,14.13
2022-10-26T05:50:47.782Z,14.23
2022-10-26T05:53:14.401Z,14.25
2022-10-26T05:55:41.574Z,14.32
2022-10-26T05:58:08.205Z,14.45
2022-10-26T06:00:35.009Z,14.63
2022-10-26T06:03:01.634Z,14.80
2022-10-26T06:05:28.255Z,14.93
2022-10-26T06:07:54.844Z,15.09
2022-10-26T06:10:21.458Z,15.23
2022-10-26T06:12:48.400Z,15.03
2022-10-26T06:15:15.306Z,15.00
2022-10-26T06:17:42.106Z,15.23
2022-10-26T06:20:08.830Z,15.43
2022-10-26T06:22:35.482Z,15.40
2022-10-26T06:25:02.103Z,15.46
2022-10-26T06:27:28.701Z,15.30
2022-10-26T06:29:55.318Z,15.32
2022-10-26T06:32:21.923Z,15.40
2022-10-26T06:34:48.599Z,15.57
2022-10-26T06:37:15.228Z,15.63
2022-10-26T06:39:41.839Z,15.75
2022-10-26T06:42:08.488Z,15.86
2022-10-26T06:44:35.108Z,15.95
2022-10-26T06:47:01.743Z,16.13
2022-10-26T06:49:28.366Z,15.96
2022-10-26T06:51:55.019Z,16.18
2022-10-26T06:54:21.608Z,16.38
2022-10-26T06:56:48.288Z,16.20
2022-10-26T06:59:14.894Z,16.23
2022-10-26T07:01:41.617Z,16.26
2022-10-26T07:04:08.327Z,16.19
2022-10-26T07:06:36.900Z,16.33
2022-10-26T07:09:05.815Z,16.44
2022-10-26T07:11:32.520Z,16.67
2022-10-26T07:13:59.148Z,16.55
2022-10-26T07:16:25.749Z,16.79
2022-10-26T07:18:52.425Z,16.60
2022-10-26T07:21:19.036Z,16.59
2022-10-26T07:23:45.620Z,16.90
2022-10-26T07:26:12.278Z,17.10
2022-10-26T07:28:38.871Z,17.42
2022-10-26T07:31:05.521Z,17.00
2022-10-26T07:33:32.148Z,17.14
2022-10-26T07:35:58.772Z,17.41
2022-10-26T07:38:25.614Z,17.52
2022-10-26T07:40:52.206Z,17.64
2022-10-26T07:43:18.805Z,17.82
2022-10-26T07:45:45.427Z,17.72
2022-10-26T07:48:12.068Z,17.28
2022-10-26T07:50:38.685Z,17.26
2022-10-26T07:53:05.305Z,17.48
2022-10-26T07:55:31.898Z,17.63
2022-10-26T07:57:58.687Z,17.81
2022-10-26T08:00:25.438Z,18.22
2022-10-26T08:02:52.090Z,18.31
2022-10-26T08:05:18.727Z,18.27
2022-10-26T08:07:45.659Z,17.95
2022-10-26T08:10:12.322Z,17.76
2022-10-26T08:12:38.916Z,18.07
2022-10-26T08:15:05.558Z,18.25
2022-10-26T08:17:32.194Z,17.70
2022-10-26T08:19:58.795Z,17.48
2022-10-26T08:22:25.414Z,17.64
2022-10-26T08:24:52.017Z,17.68
2022-10-26T08:27:18.652Z,17.97
2022-10-26T08:29:45.254Z,18.08
2022-10-26T08:32:11.891Z,18.03
2022-10-26T08:34:38.503Z,18.32
2022-10-26T08:37:05.130Z,18.62
2022-10-26T08:39:31.769Z,18.88
2022-10-26T08:41:58.416Z,18.97
2022-10-26T08:44:25.038Z,19.02
2022-10-26T08:46:51.641Z,18.85
2022-10-26T08:49:18.264Z,18.53
2022-10-26T08:51:44.866Z,18.60
2022-10-26T08:54:11.500Z,18.55
2022-10-26T08:56:38.089Z,18.37
2022-10-26T08:59:04.717Z,18.66
2022-10-26T09:01:31.380Z,19.06
2022-10-26T09:03:58.075Z,18.88
2022-10-26T09:06:24.709Z,18.03
2022-10-26T09:08:51.342Z,18.17
2022-10-26T09:11:17.983Z,18.51
2022-10-26T09:13:44.623Z,18.55
2022-10-26T09:16:11.224Z,18.53
2022-10-26T09:18:37.939Z,18.38
2022-10-26T09:21:04.590Z,19.08
2022-10-26T09:23:31.177Z,19.72
2022-10-26T09:25:57.846Z,19.95
2022-10-26T09:28:24.434Z,19.93
2022-10-26T09:30:51.107Z,20.15
2022-10-26T09:33:17.742Z,20.41
2022-10-26T09:35:44.367Z,20.63
2022-10-26T09:38:10.968Z,20.81
2022-10-26T09:40:37.588Z,20.58
2022-10-26T09:43:04.211Z,20.58
2022-10-26T09:45:30.857Z,20.68
2022-10-26T09:47:57.463Z,20.91
2022-10-26T09:50:24.090Z,21.02
2022-10-26T09:52:51.008Z,21.14
2022-10-26T09:55:17.858Z,21.15
2022-10-26T09:57:44.510Z,21.28
2022-10-26T10:00:11.128Z,21.19
2022-10-26T10:02:37.798Z,21.18
2022-10-26T10:05:04.494Z,21.25
2022-10-26T10:07:31.116Z,21.06
2022-10-26T10:09:57.728Z,20.98
2022-10-26T10:12:24.327Z,21.03
2022-10-26T10:14:50.964Z,21.09
2022-10-26T10:19:49.043Z,21.81
2022-10-26T10:22:15.661Z,22.37
2022-10-26T10:24:42.419Z,22.20
2022-10-26T10:27:09.027Z,22.44
2022-10-26T10:29:35.641Z,22.74
2022-10-26T10:32:02.315Z,22.62
2022-10-26T10:34:28.903Z,22.82
2022-10-26T10:36:55.525Z,23.07
2022-10-26T10:39:22.171Z,23.40
2022-10-26T10:41:48.863Z,23.21
2022-10-26T10:44:15.548Z,23.69
2022-10-26T10:46:42.142Z,23.96
2022-10-26T10:49:08.786Z,23.43
2022-10-26T10:51:35.407Z,23.73
2022-10-26T10:54:02.033Z,23.66
2022-10-26T10:56:28.659Z,23.04
2022-10-26T10:58:55.262Z,22.97
2022-10-26T11:01:22.179Z,23.84
2022-10-26T11:03:48.850Z,23.97
2022-10-26T11:06:15.503Z,23.67
2022-10-26T11:08:42.124Z,23.54
2022-10-26T11:11:08.724Z,23.67
2022-10-26T11:13:35.362Z,24.60
2022-10-26T11:16:02.011Z,24.81
2022-10-26T11:18:28.602Z,25.06
2022-10-26T11:20:55.280Z,24.24
2022-10-26T11:23:21.897Z,24.03
2022-10-26T11:25:48.519Z,24.47
2022-10-26T11:28:15.137Z,24.73
2022-10-26T11:30:41.776Z,24.73
2022-10-26T11:33:08.392Z,25.12
2022-10-26T11:35:35.004Z,25.10
2022-10-26T11:38:01.658Z,24.71
2022-10-26T11:40:28.302Z,24.40
2022-10-26T11:42:54.940Z,25.08
2022-10-26T11:45:21.536Z,25.90
2022-10-26T11:47:48.507Z,25.79
2022-10-26T11:50:17.399Z,24.90
2022-10-26T11:52:44.391Z,25.27
2022-10-26T11:55:11.007Z,25.24
2022-10-26T11:57:37.603Z,25.57
2022-10-26T12:00:04.249Z,25.82
2022-10-26T12:02:30.868Z,26.13
2022-10-26T12:04:57.796Z,26.38
2022-10-26T12:07:24.385Z,26.56
2022-10-26T12:09:51.005Z,26.73
2022-10-26T12:12:17.643Z,26.67
2022-10-26T12:14:44.259Z,26.52
2022-10-26T12:17:10.870Z,26.48
2022-10-26T12:19:37.485Z,26.77
2022-10-26T12:22:04.094Z,26.93
2022-10-26T12:24:30.732Z,26.71
2022-10-26T12:26:57.351Z,26.70
2022-10-26T12:29:23.944Z,26.93
2022-10-26T12:31:50.567Z,27.15
2022-10-26T12:34:17.169Z,26.81
2022-10-26T12:36:43.781Z,26.52
2022-10-26T12:39:10.383Z,26.46
2022-10-26T12:44:21.240Z,26.10
2022-10-26T12:46:47.860Z,25.72
2022-10-26T12:49:14.496Z,25.21
2022-10-26T12:51:41.106Z,25.48
2022-10-26T12:54:07.726Z,25.38
2022-10-26T12:56:34.326Z,25.68
2022-10-26T12:59:04.478Z,25.24
2022-10-26T13:01:31.657Z,25.00
2022-10-26T13:03:58.473Z,24.68
2022-10-26T13:06:25.085Z,24.94
2022-10-26T13:08:56.239Z,25.10
2022-10-26T13:11:25.583Z,25.16
2022-10-26T13:13:52.193Z,25.00
2022-10-26T13:16:18.812Z,25.13
2022-10-26T13:18:45.428Z,24.84
2022-10-26T13:21:12.053Z,24.25
2022-10-26T13:23:38.675Z,23.66
2022-10-26T13:26:05.266Z,23.60
2022-10-26T13:28:31.873Z,23.83
2022-10-26T13:30:58.458Z,24.17
2022-10-26T13:33:25.088Z,24.42
2022-10-26T13:35:51.707Z,24.70
2022-10-26T13:38:18.323Z,24.26
2022-10-26T13:40:44.951Z,23.92
2022-10-26T13:43:11.613Z,23.92
2022-10-26T13:45:38.211Z,23.96
2022-10-26T13:48:04.837Z,24.24
2022-10-26T13:50:32.211Z,24.27
2022-10-26T13:52:58.941Z,24.14
2022-10-26T13:55:25.580Z,24.18
2022-10-26T13:57:52.181Z,23.87
2022-10-26T14:00:18.814Z,23.85
2022-10-26T14:02:45.469Z,23.98
2022-10-26T14:05:12.085Z,23.43
2022-10-26T14:07:38.704Z,23.69
2022-10-26T14:10:05.483Z,23.85
2022-10-26T14:12:32.155Z,23.76
2022-10-26T14:14:58.779Z,23.77
2022-10-26T14:17:25.412Z,23.70
2022-10-26T14:19:52.001Z,23.49
2022-10-26T14:22:22.908Z,23.48
2022-10-26T14:24:49.985Z,23.47
2022-10-26T14:27:16.647Z,23.06
2022-10-26T14:29:46.911Z,23.13
2022-10-26T14:32:16.602Z,23.41
2022-10-26T14:34:43.318Z,23.72
2022-10-26T14:37:09.913Z,23.71
2022-10-26T14:39:36.540Z,23.84
2022-10-26T14:42:03.152Z,23.63
2022-10-26T14:44:29.761Z,23.91
2022-10-26T14:46:56.348Z,24.13
2022-10-26T14:49:23.174Z,24.33
2022-10-26T14:51:49.779Z,24.25
2022-10-26T14:54:16.455Z,24.27
2022-10-26T14:56:43.099Z,24.00
2022-10-26T14:59:09.703Z,24.03
2022-10-26T15:01:36.864Z,23.96
2022-10-26T15:04:03.636Z,23.73
2022-10-26T15:06:30.257Z,23.67
2022-10-26T15:08:57.527Z,23.71
2022-10-26T15:11:24.228Z,23.67
2022-10-26T15:13:50.824Z,23.57
2022-10-26T15:16:17.466Z,23.35
2022-10-26T15:18:44.073Z,23.32
2022-10-26T15:21:10.736Z,23.26
2022-10-26T15:23:37.357Z,23.24
2022-10-26T15:26:03.992Z,23.20
2022-10-26T15:28:30.615Z,23.01
2022-10-26T15:31:00.556Z,22.91
2022-10-26T15:33:27.674Z,22.90
2022-10-26T15:35:54.291Z,22.93
2022-10-26T15:38:20.909Z,22.88
2022-10-26T15:40:47.518Z,22.86
2022-10-26T15:43:14.150Z,22.65
2022-10-26T15:45:40.806Z,22.57
2022-10-26T15:48:07.449Z,22.50
2022-10-26T15:50:35.612Z,22.33
2022-10-26T15:53:04.449Z,22.09
2022-10-26T15:55:31.074Z,22.13
2022-10-26T15:57:57.707Z,22.09
2022-10-26T16:00:24.557Z,22.00
2022-10-26T16:02:51.158Z,21.89
2022-10-26T16:05:17.811Z,21.75
2022-10-26T16:07:44.519Z,21.58
2022-10-26T16:10:11.118Z,21.50
2022-10-26T16:12:38.479Z,21.48
2022-10-26T16:15:06.102Z,21.50
2022-10-26T16:17:33.139Z,21.42
2022-10-26T16:19:59.780Z,21.35
2022-10-26T16:22:26.405Z,21.11
2022-10-26T16:24:53.009Z,21.03
2022-10-26T16:27:19.687Z,21.00
2022-10-26T16:29:46.330Z,20.94
2022-10-26T16:32:12.943Z,20.89
2022-10-26T16:34:39.560Z,20.81
2022-10-26T16:37:06.158Z,20.75
2022-10-26T16:39:32.767Z,20.74
2022-10-26T16:41:59.384Z,20.72
2022-10-26T16:44:25.979Z,20.55
2022-10-26T16:46:52.606Z,20.58
2022-10-26T16:49:19.265Z,20.53
2022-10-26T16:51:45.926Z,20.54
2022-10-26T16:54:12.561Z,20.42
2022-10-26T16:56:39.175Z,20.36
2022-10-26T16:59:05.788Z,20.18
2022-10-26T17:01:32.568Z,20.25
2022-10-26T17:03:59.351Z,20.12
2022-10-26T17:06:25.991Z,20.00
2022-10-26T17:08:52.662Z,20.06
2022-10-26T17:11:19.262Z,20.06
2022-10-26T17:13:45.929Z,20.03
2022-10-26T17:16:12.546Z,19.93
2022-10-26T17:18:39.158Z,19.76
2022-10-26T17:21:08.588Z,19.43
2022-10-26T17:23:35.196Z,19.47
2022-10-26T17:26:01.829Z,19.35
2022-10-26T17:28:28.469Z,19.40
2022-10-26T17:30:55.092Z,19.47
2022-10-26T17:33:21.751Z,19.31
2022-10-26T17:35:48.351Z,19.36
2022-10-26T17:38:14.950Z,19.19
2022-10-26T17:40:41.574Z,19.23
2022-10-26T17:43:08.195Z,19.09
2022-10-26T17:45:34.855Z,19.10
2022-10-26T17:48:01.457Z,19.13
2022-10-26T17:50:28.199Z,19.18
2022-10-26T17:52:54.807Z,19.13
2022-10-26T17:55:21.610Z,19.19
2022-10-26T17:57:48.465Z,19.26
2022-10-26T18:00:15.281Z,19.22
2022-10-26T18:02:42.297Z,19.17
2022-10-26T18:05:09.222Z,19.20
2022-10-26T18:07:35.893Z,19.08
2022-10-26T18:10:14.066Z,19.09
2022-10-26T18:12:49.477Z,19.08
2022-10-26T18:15:16.351Z,19.02
2022-10-26T18:17:42.949Z,19.07
2022-10-26T18:20:09.596Z,19.06
2022-10-26T18:22:36.213Z,18.98
2022-10-26T18:25:02.850Z,18.77
2022-10-26T18:27:29.474Z,18.78
2022-10-26T18:29:56.099Z,18.91
2022-10-26T18:32:22.686Z,18.86
2022-10-26T18:34:49.355Z,18.76
2022-10-26T18:37:16.028Z,18.78
2022-10-26T18:39:42.620Z,18.85
2022-10-26T18:42:09.271Z,18.81
2022-10-26T18:44:35.875Z,18.93
2022-10-26T18:47:02.511Z,19.04
2022-10-26T18:49:29.162Z,18.85
2022-10-26T18:51:55.823Z,18.87
2022-10-26T18:54:22.452Z,19.08
2022-10-26T18:56:49.057Z,19.02
2022-10-26T18:59:15.704Z,19.12
2022-10-26T19:01:42.698Z,19.22
2022-10-26T19:04:09.576Z,19.06
2022-10-26T19:06:36.273Z,18.97
2022-10-26T19:09:02.977Z,19.15
2022-10-26T19:11:29.579Z,19.26
2022-10-26T19:13:56.231Z,19.35
2022-10-26T19:16:43.911Z,19.32
2022-10-26T19:19:09.515Z,19.30
2022-10-26T19:21:36.171Z,19.17
2022-10-26T19:24:03.163Z,19.14
2022-10-26T19:26:34.235Z,19.16
2022-10-26T19:29:01.950Z,19.22
2022-10-26T19:31:28.670Z,19.22
2022-10-26T19:33:55.317Z,19.19
2022-10-26T19:36:21.959Z,19.22
2022-10-26T19:38:48.569Z,19.13
2022-10-26T19:41:15.257Z,19.25
2022-10-26T19:43:41.867Z,19.31
2022-10-26T19:46:08.507Z,19.23
2022-10-26T19:48:35.234Z,19.13
2022-10-26T19:51:01.874Z,19.22
2022-10-26T19:53:28.515Z,19.19
2022-10-26T19:55:55.143Z,19.20
2022-10-26T19:58:21.817Z,19.18
2022-10-26T20:00:48.477Z,19.20
2022-10-26T20:03:15.190Z,19.10
2022-10-26T20:05:41.958Z,19.07
2022-10-26T20:08:08.585Z,18.93
2022-10-26T20:10:35.201Z,18.97
2022-10-26T20:13:01.834Z,19.05
2022-10-26T20:15:28.467Z,19.18
2022-10-26T20:17:55.095Z,19.03
2022-10-26T20:20:21.705Z,19.01
2022-10-26T20:22:48.924Z,19.09
2022-10-26T20:25:15.760Z,19.13
2022-10-26T20:27:42.360Z,19.10
2022-10-26T20:30:08.996Z,18.78
2022-10-26T20:32:35.612Z,18.77
2022-10-26T20:35:02.218Z,18.79
2022-10-26T20:37:28.852Z,18.95
2022-10-26T20:39:55.478Z,18.88
2022-10-26T20:42:22.098Z,18.71
2022-10-26T20:44:48.700Z,18.70
2022-10-26T20:47:15.368Z,18.60
2022-10-26T20:49:44.075Z,18.78
2022-10-26T20:52:25.498Z,18.83
2022-10-26T20:54:52.132Z,18.87
2022-10-26T20:57:18.761Z,18.94
2022-10-26T20:59:45.360Z,18.96
2022-10-26T21:02:12.004Z,18.92
2022-10-26T21:04:38.682Z,18.82
2022-10-26T21:07:05.273Z,18.71
2022-10-26T21:09:34.248Z,18.73
2022-10-26T21:12:03.510Z,18.65
2022-10-26T21:14:30.123Z,18.68
2022-10-26T21:16:56.720Z,18.67
2022-10-26T21:19:23.353Z,18.64
2022-10-26T21:21:50.015Z,18.66
2022-10-26T21:24:16.622Z,18.66
2022-10-26T21:26:43.236Z,18.66
2022-10-26T21:29:09.832Z,18.63
2022-10-26T21:31:36.454Z,18.64
2022-10-26T21:36:47.298Z,18.44
2022-10-26T21:39:13.911Z,18.59
2022-10-26T21:41:40.654Z,18.58
2022-10-26T21:44:09.142Z,18.59
2022-10-26T21:46:36.984Z,18.44
2022-10-26T21:49:03.605Z,18.60
2022-10-26T21:51:30.223Z,18.56
2022-10-26T21:53:56.827Z,18.47
2022-10-26T21:56:23.469Z,18.51
2022-10-26T21:58:50.053Z,18.57
2022-10-26T22:01:16.743Z,18.55
2022-10-26T22:03:43.432Z,18.57
2022-10-26T22:06:10.086Z,18.55
2022-10-26T22:08:37.101Z,18.55
2022-10-26T22:11:03.698Z,18.45
2022-10-26T22:13:30.309Z,18.45
2022-10-26T22:15:56.933Z,18.44
2022-10-26T22:18:23.514Z,18.49
2022-10-26T22:20:50.123Z,18.38
2022-10-26T22:23:16.742Z,18.22
2022-10-26T22:25:43.374Z,18.27
2022-10-26T22:28:09.989Z,18.14
2022-10-26T22:30:36.609Z,18.19
2022-10-26T22:33:03.273Z,18.16
2022-10-26T22:35:30.193Z,18.06
2022-10-26T22:37:56.924Z,18.06
2022-10-26T22:40:23.553Z,17.98
2022-10-26T22:42:50.472Z,18.02
2022-10-26T22:45:17.228Z,18.06
2022-10-26T22:47:43.867Z,17.91
2022-10-26T22:50:10.477Z,17.92
2022-10-26T22:52:37.111Z,17.95
2022-10-26T22:55:03.785Z,17.90
2022-10-26T22:57:30.723Z,17.87
2022-10-26T22:59:57.331Z,17.69
2022-10-26T23:02:23.958Z,17.66
2022-10-26T23:04:50.602Z,17.67
2022-10-26T23:07:17.198Z,17.65
2022-10-26T23:09:43.787Z,17.67
2022-10-26T23:12:10.420Z,17.67
2022-10-26T23:14:37.035Z,17.67
2022-10-26T23:17:03.638Z,17.60
2022-10-26T23:19:30.297Z,17.53
2022-10-26T23:21:56.945Z,17.49
2022-10-26T23:24:23.618Z,17.25
2022-10-26T23:26:50.274Z,17.32
2022-10-26T23:29:16.931Z,17.23
2022-10-26T23:31:43.552Z,17.22
2022-10-26T23:34:10.148Z,17.31
2022-10-26T23:36:36.803Z,17.32
2022-10-26T23:39:03.397Z,17.27
2022-10-26T23:41:30.022Z,17.14
2022-10-26T23:43:56.616Z,17.10
2022-10-26T23:46:23.244Z,16.95
2022-10-26T23:48:49.891Z,17.07
2022-10-26T23:51:16.494Z,17.08
2022-10-26T23:53:43.120Z,17.11
2022-10-26T23:56:09.734Z,16.96
2022-10-26T23:58:36.348Z,16.81
